createdAt,value
2023-03-15T00:00:43.144Z,5.02
2023-03-15T00:03:12.081Z,4.81
2023-03-15T00:05:43.243Z,4.86
2023-03-15T00:08:12.177Z,4.85
2023-03-15T00:10:41.719Z,4.52
2023-03-15T00:13:10.353Z,4.58
2023-03-15T00:15:46.815Z,4.28
2023-03-15T00:18:15.423Z,3.94
2023-03-15T00:20:43.847Z,3.97
2023-03-15T00:23:12.323Z,4.48
2023-03-15T00:25:40.722Z,4.24
2023-03-15T00:28:09.565Z,4.25
2023-03-15T00:30:39.126Z,4.15
2023-03-15T00:33:07.044Z,4.06
2023-03-15T00:35:39.381Z,4.43
2023-03-15T00:38:07.438Z,4.42
2023-03-15T00:40:35.639Z,4.63
2023-03-15T00:43:04.232Z,4.50
2023-03-15T00:45:32.108Z,4.35
2023-03-15T00:48:01.649Z,4.42
2023-03-15T00:50:29.627Z,4.48
2023-03-15T00:52:57.563Z,4.50
2023-03-15T00:55:27.030Z,4.61
2023-03-15T00:57:54.993Z,4.49
2023-03-15T01:00:25.251Z,4.59
2023-03-15T01:02:53.673Z,4.69
2023-03-15T01:05:26.302Z,4.41
2023-03-15T01:07:54.365Z,4.36
2023-03-15T01:10:22.197Z,4.67
2023-03-15T01:12:50.098Z,4.79
2023-03-15T01:15:18.185Z,4.88
2023-03-15T01:17:46.159Z,4.73
2023-03-15T01:20:17.361Z,4.37
2023-03-15T01:22:46.632Z,4.68
2023-03-15T01:25:16.000Z,4.73
2023-03-15T01:27:45.693Z,4.81
2023-03-15T01:30:14.074Z,4.70
2023-03-15T01:32:41.924Z,4.66
2023-03-15T01:35:10.331Z,4.81
2023-03-15T01:37:38.222Z,4.84
2023-03-15T01:40:14.575Z,4.68
2023-03-15T01:43:13.128Z,4.76
2023-03-15T01:45:58.029Z,4.66
2023-03-15T01:48:30.832Z,4.78
2023-03-15T01:51:00.109Z,4.68
2023-03-15T01:53:31.686Z,4.68
2023-03-15T01:56:02.659Z,4.66
2023-03-15T01:58:41.462Z,4.61
2023-03-15T02:01:10.868Z,4.40
2023-03-15T02:03:48.505Z,4.30
2023-03-15T02:06:20.103Z,4.17
2023-03-15T02:08:57.040Z,4.31
2023-03-15T02:11:28.921Z,4.39
2023-03-15T02:13:58.840Z,4.43
2023-03-15T02:16:27.370Z,4.40
2023-03-15T02:19:00.107Z,4.31
2023-03-15T02:21:39.993Z,4.45
2023-03-15T02:24:20.814Z,4.27
2023-03-15T02:26:55.070Z,4.15
2023-03-15T02:29:26.520Z,4.14
2023-03-15T02:31:54.838Z,3.96
2023-03-15T02:34:26.178Z,3.88
2023-03-15T02:36:56.512Z,3.86
2023-03-15T02:39:25.553Z,3.59
2023-03-15T02:41:56.139Z,3.67
2023-03-15T02:44:30.431Z,3.76
2023-03-15T02:47:02.677Z,3.67
2023-03-15T02:49:33.954Z,3.44
2023-03-15T02:52:01.926Z,3.70
2023-03-15T02:54:29.753Z,3.77
2023-03-15T02:56:57.586Z,3.83
2023-03-15T02:59:26.895Z,3.85
2023-03-15T03:01:54.941Z,3.80
2023-03-15T03:04:23.004Z,3.67
2023-03-15T03:06:50.981Z,3.70
2023-03-15T03:09:22.636Z,3.61
2023-03-15T03:11:50.545Z,3.41
2023-03-15T03:14:19.506Z,3.66
2023-03-15T03:16:48.815Z,3.53
2023-03-15T03:19:19.449Z,3.72
2023-03-15T03:21:47.358Z,3.74
2023-03-15T03:24:16.504Z,3.77
2023-03-15T03:26:46.097Z,3.92
2023-03-15T03:29:16.573Z,3.99
2023-03-15T03:31:46.262Z,3.98
2023-03-15T03:34:15.739Z,3.71
2023-03-15T03:36:44.425Z,3.63
2023-03-15T03:39:15.777Z,3.63
2023-03-15T03:41:45.260Z,3.58
2023-03-15T03:44:14.218Z,3.32
2023-03-15T03:46:43.544Z,3.33
2023-03-15T03:49:14.765Z,3.08
2023-03-15T03:51:42.671Z,3.20
2023-03-15T03:54:10.517Z,3.33
2023-03-15T03:56:39.699Z,3.12
2023-03-15T03:59:07.604Z,3.29
2023-03-15T04:01:58.188Z,3.42
2023-03-15T04:04:27.565Z,3.40
2023-03-15T04:06:55.698Z,3.41
2023-03-15T04:09:28.129Z,3.40
2023-03-15T04:11:56.024Z,3.29
2023-03-15T04:14:25.772Z,3.40
2023-03-15T04:16:54.578Z,3.42
2023-03-15T04:19:24.320Z,3.47
2023-03-15T04:21:54.469Z,3.27
2023-03-15T04:24:34.037Z,3.35
2023-03-15T04:27:14.504Z,3.47
2023-03-15T04:30:05.264Z,3.23
2023-03-15T04:32:46.190Z,3.29
2023-03-15T04:35:30.615Z,3.06
2023-03-15T04:38:18.601Z,3.06
2023-03-15T04:41:02.153Z,3.12
2023-03-15T04:44:02.335Z,3.17
2023-03-15T04:46:59.840Z,3.05
2023-03-15T04:50:00.925Z,3.24
2023-03-15T04:52:49.531Z,3.24
2023-03-15T04:55:24.611Z,3.33
2023-03-15T04:58:18.832Z,3.27
2023-03-15T05:01:19.025Z,3.19
2023-03-15T05:03:57.548Z,3.06
2023-03-15T05:06:51.450Z,3.28
2023-03-15T05:09:28.292Z,3.36
2023-03-15T05:12:18.749Z,3.32
2023-03-15T05:15:08.075Z,3.19
2023-03-15T05:17:59.174Z,3.20
2023-03-15T05:20:43.607Z,3.21
2023-03-15T05:23:32.594Z,3.20
2023-03-15T05:26:19.163Z,3.10
2023-03-15T05:29:08.789Z,2.97
2023-03-15T05:31:52.328Z,3.13
2023-03-15T05:34:32.278Z,3.16
2023-03-15T05:37:32.926Z,3.13
2023-03-15T05:40:24.252Z,3.05
2023-03-15T05:43:03.879Z,3.08
2023-03-15T05:45:51.357Z,3.17
2023-03-15T05:48:38.441Z,3.20
2023-03-15T05:51:27.491Z,3.14
2023-03-15T05:54:33.695Z,3.14
2023-03-15T05:57:19.800Z,3.08
2023-03-15T06:00:26.122Z,3.00
2023-03-15T06:03:02.741Z,3.04
2023-03-15T06:05:47.397Z,3.10
2023-03-15T06:08:20.320Z,3.23
2023-03-15T06:10:51.565Z,2.96
2023-03-15T06:13:19.612Z,3.01
2023-03-15T06:15:48.456Z,3.05
2023-03-15T06:18:19.592Z,3.24
2023-03-15T06:20:50.044Z,3.23
2023-03-15T06:23:19.496Z,3.14
2023-03-15T06:25:48.510Z,3.27
2023-03-15T06:28:17.587Z,3.49
2023-03-15T06:30:51.681Z,3.49
2023-03-15T06:33:25.260Z,3.37
2023-03-15T06:35:56.622Z,3.28
2023-03-15T06:38:24.672Z,3.54
2023-03-15T06:40:52.521Z,3.68
2023-03-15T06:43:20.389Z,3.70
2023-03-15T06:45:48.961Z,3.86
2023-03-15T06:48:18.398Z,3.77
2023-03-15T06:50:48.221Z,3.82
2023-03-15T06:53:17.829Z,3.57
2023-03-15T06:55:47.039Z,3.70
2023-03-15T06:58:15.319Z,3.81
2023-03-15T07:00:44.338Z,3.87
2023-03-15T07:03:14.371Z,4.18
2023-03-15T07:05:42.286Z,3.95
2023-03-15T07:08:11.534Z,4.23
2023-03-15T07:10:39.367Z,4.19
2023-03-15T07:13:07.328Z,4.48
2023-03-15T07:15:37.586Z,4.48
2023-03-15T07:18:05.477Z,4.62
2023-03-15T07:20:34.686Z,4.90
2023-03-15T07:23:03.395Z,4.95
2023-03-15T07:25:37.594Z,5.10
2023-03-15T07:28:10.060Z,5.26
2023-03-15T07:30:37.876Z,5.15
2023-03-15T07:33:05.877Z,5.33
2023-03-15T07:35:33.902Z,5.49
2023-03-15T07:38:04.368Z,5.70
2023-03-15T07:40:33.743Z,5.80
2023-03-15T07:43:01.477Z,5.91
2023-03-15T07:45:29.601Z,6.30
2023-03-15T07:48:00.772Z,6.15
2023-03-15T07:50:28.711Z,6.84
2023-03-15T07:52:56.554Z,6.66
2023-03-15T07:55:25.313Z,6.83
2023-03-15T07:57:54.575Z,6.85
2023-03-15T08:00:23.047Z,7.08
2023-03-15T08:02:50.966Z,6.96
2023-03-15T08:05:19.088Z,7.10
2023-03-15T08:07:47.268Z,7.04
2023-03-15T08:10:18.665Z,7.16
2023-03-15T08:12:46.609Z,7.45
2023-03-15T08:15:16.342Z,7.63
2023-03-15T08:17:44.289Z,7.72
2023-03-15T08:20:17.544Z,7.74
2023-03-15T08:22:45.975Z,8.37
2023-03-15T08:25:19.073Z,8.24
2023-03-15T08:27:47.116Z,8.20
2023-03-15T08:30:17.598Z,8.32
2023-03-15T08:32:47.158Z,8.78
2023-03-15T08:35:17.477Z,8.61
2023-03-15T08:37:46.989Z,9.39
2023-03-15T08:40:15.591Z,10.21
2023-03-15T08:42:43.544Z,10.32
2023-03-15T08:45:12.317Z,9.94
2023-03-15T08:47:41.939Z,10.46
2023-03-15T08:50:14.460Z,10.33
2023-03-15T08:52:43.064Z,9.79
2023-03-15T08:55:14.359Z,9.28
2023-03-15T08:57:43.011Z,10.50
2023-03-15T09:00:18.446Z,10.50
2023-03-15T09:02:49.694Z,11.25
2023-03-15T09:05:18.175Z,11.36
2023-03-15T09:07:46.691Z,11.03
2023-03-15T09:10:16.498Z,11.72
2023-03-15T09:12:44.700Z,11.71
2023-03-15T09:15:12.950Z,11.47
2023-03-15T09:17:41.258Z,10.63
2023-03-15T09:20:15.419Z,10.93
2023-03-15T09:22:44.204Z,10.60
2023-03-15T09:25:12.049Z,11.41
2023-03-15T09:27:40.008Z,11.15
2023-03-15T09:30:08.928Z,10.21
2023-03-15T09:32:37.116Z,10.49
2023-03-15T09:35:06.117Z,10.15
2023-03-15T09:37:36.191Z,9.80
2023-03-15T09:40:04.783Z,9.74
2023-03-15T09:42:43.124Z,9.42
2023-03-15T09:45:19.342Z,9.61
2023-03-15T09:47:57.018Z,9.59
2023-03-15T09:50:30.527Z,9.66
2023-03-15T09:53:05.755Z,9.96
2023-03-15T09:55:33.669Z,9.75
2023-03-15T09:58:04.263Z,8.98
2023-03-15T10:00:38.596Z,9.14
2023-03-15T10:03:09.877Z,9.41
2023-03-15T10:05:43.010Z,9.76
2023-03-15T10:08:17.485Z,9.74
2023-03-15T10:10:51.947Z,9.56
2023-03-15T10:13:30.842Z,9.68
2023-03-15T10:16:12.347Z,9.95
2023-03-15T10:18:57.633Z,9.98
2023-03-15T10:21:36.241Z,10.15
2023-03-15T10:24:06.964Z,9.71
2023-03-15T10:26:39.648Z,9.39
2023-03-15T10:29:14.868Z,10.25
2023-03-15T10:31:46.342Z,10.19
2023-03-15T10:34:16.684Z,10.20
2023-03-15T10:36:50.311Z,10.26
2023-03-15T10:39:19.545Z,10.04
2023-03-15T10:41:49.979Z,10.12
2023-03-15T10:44:21.272Z,9.60
2023-03-15T10:47:05.019Z,10.41
2023-03-15T10:49:42.211Z,10.89
2023-03-15T10:52:28.258Z,10.90
2023-03-15T10:55:03.923Z,10.84
2023-03-15T10:57:39.080Z,11.15
2023-03-15T11:00:23.958Z,10.75
2023-03-15T11:03:01.579Z,10.23
2023-03-15T11:05:33.084Z,9.49
2023-03-15T11:08:02.335Z,9.29
2023-03-15T11:10:35.816Z,8.88
2023-03-15T11:13:21.945Z,9.38
2023-03-15T11:15:57.045Z,9.53
2023-03-15T11:18:30.950Z,9.44
2023-03-15T11:20:59.606Z,10.01
2023-03-15T11:23:30.915Z,9.62
2023-03-15T11:26:00.422Z,9.87
2023-03-15T11:28:31.662Z,9.64
2023-03-15T11:31:01.026Z,9.31
2023-03-15T11:33:38.318Z,9.22
2023-03-15T11:36:12.220Z,8.80
2023-03-15T11:38:44.168Z,9.33
2023-03-15T11:41:23.702Z,9.76
2023-03-15T11:43:59.495Z,9.38
2023-03-15T11:46:33.116Z,9.65
2023-03-15T11:49:07.372Z,9.38
2023-03-15T11:51:37.573Z,8.68
2023-03-15T11:54:12.568Z,9.01
2023-03-15T11:56:54.253Z,8.98
2023-03-15T11:59:27.594Z,9.21
2023-03-15T12:02:00.860Z,8.69
2023-03-15T12:04:45.302Z,8.43
2023-03-15T12:07:34.648Z,8.88
2023-03-15T12:10:22.127Z,9.09
2023-03-15T12:13:18.472Z,8.45
2023-03-15T12:15:48.914Z,8.31
2023-03-15T12:18:23.163Z,8.86
2023-03-15T12:20:58.543Z,8.73
2023-03-15T12:23:38.966Z,8.80
2023-03-15T12:26:10.883Z,8.82
2023-03-15T12:28:45.037Z,9.39
2023-03-15T12:31:15.273Z,9.29
2023-03-15T12:33:49.698Z,8.88
2023-03-15T12:36:30.740Z,9.14
2023-03-15T12:39:04.374Z,9.32
2023-03-15T12:41:39.063Z,7.44
2023-03-15T12:44:38.370Z,7.56
2023-03-15T12:47:07.305Z,7.43
2023-03-15T12:49:38.055Z,6.89
2023-03-15T12:52:14.459Z,6.57
2023-03-15T12:54:46.962Z,7.41
2023-03-15T12:57:22.041Z,8.13
2023-03-15T12:59:55.770Z,7.72
2023-03-15T13:02:42.120Z,7.13
2023-03-15T13:05:20.192Z,6.96
2023-03-15T13:07:58.167Z,6.54
2023-03-15T13:10:41.107Z,7.81
2023-03-15T13:13:38.798Z,6.99
2023-03-15T13:16:18.656Z,7.06
2023-03-15T13:18:55.828Z,6.76
2023-03-15T13:21:29.787Z,6.84
2023-03-15T13:23:59.951Z,7.33
2023-03-15T13:26:40.784Z,7.64
2023-03-15T13:29:17.553Z,7.49
2023-03-15T13:31:47.827Z,7.84
2023-03-15T13:34:20.856Z,7.90
2023-03-15T13:36:50.833Z,7.69
2023-03-15T13:39:23.453Z,7.93
2023-03-15T13:41:57.813Z,8.17
2023-03-15T13:44:27.238Z,8.67
2023-03-15T13:46:57.925Z,8.48
2023-03-15T13:49:30.934Z,8.23
2023-03-15T13:52:00.088Z,7.97
2023-03-15T13:54:30.752Z,7.95
2023-03-15T13:57:03.647Z,8.00
2023-03-15T13:59:36.328Z,7.96
2023-03-15T14:02:07.213Z,7.77
2023-03-15T14:04:38.723Z,7.79
2023-03-15T14:07:22.438Z,8.02
2023-03-15T14:09:50.283Z,8.25
2023-03-15T14:12:23.649Z,8.24
2023-03-15T14:14:53.661Z,8.42
2023-03-15T14:17:27.602Z,8.89
2023-03-15T14:19:57.814Z,8.91
2023-03-15T14:22:26.104Z,8.85
2023-03-15T14:24:54.366Z,8.66
2023-03-15T14:27:24.306Z,8.53
2023-03-15T14:29:55.959Z,7.82
2023-03-15T14:32:31.215Z,8.34
2023-03-15T14:35:05.139Z,8.32
2023-03-15T14:37:38.157Z,8.67
2023-03-15T14:40:21.026Z,8.53
2023-03-15T14:42:50.015Z,8.72
2023-03-15T14:45:19.084Z,8.38
2023-03-15T14:47:57.080Z,6.41
2023-03-15T14:50:27.825Z,6.07
2023-03-15T14:52:57.503Z,6.36
2023-03-15T14:55:30.600Z,6.81
2023-03-15T14:57:58.777Z,6.06
2023-03-15T15:00:27.265Z,6.66
2023-03-15T15:02:58.322Z,7.06
2023-03-15T15:05:32.674Z,7.59
2023-03-15T15:08:13.170Z,7.61
2023-03-15T15:10:44.777Z,7.91
2023-03-15T15:13:18.918Z,7.43
2023-03-15T15:15:55.128Z,7.05
2023-03-15T15:18:26.975Z,6.79
2023-03-15T15:20:59.416Z,6.87
2023-03-15T15:23:29.881Z,7.40
2023-03-15T15:26:19.911Z,7.07
2023-03-15T15:28:57.538Z,6.27
2023-03-15T15:31:27.127Z,6.34
2023-03-15T15:33:57.586Z,6.36
2023-03-15T15:36:28.090Z,6.46
2023-03-15T15:39:01.231Z,6.23
2023-03-15T15:41:31.535Z,6.09
2023-03-15T15:43:59.881Z,6.14
2023-03-15T15:46:28.493Z,6.03
2023-03-15T15:48:58.880Z,6.23
2023-03-15T15:51:29.574Z,6.30
2023-03-15T15:53:59.617Z,6.01
2023-03-15T15:56:33.758Z,6.43
2023-03-15T15:59:03.269Z,6.25
2023-03-15T16:01:31.535Z,6.23
2023-03-15T16:04:02.090Z,6.58
2023-03-15T16:06:30.531Z,6.58
2023-03-15T16:08:58.677Z,6.62
2023-03-15T16:11:26.947Z,6.25
2023-03-15T16:13:55.020Z,6.21
2023-03-15T16:16:23.030Z,6.60
2023-03-15T16:18:51.146Z,6.92
2023-03-15T16:21:27.526Z,7.15
2023-03-15T16:23:59.304Z,6.68
2023-03-15T16:26:27.177Z,6.57
2023-03-15T16:28:55.540Z,6.85
2023-03-15T16:31:23.644Z,6.85
2023-03-15T16:33:51.939Z,7.16
2023-03-15T16:36:23.358Z,7.20
2023-03-15T16:38:51.343Z,7.30
2023-03-15T16:41:19.281Z,6.85
2023-03-15T16:43:50.644Z,6.95
2023-03-15T16:46:18.821Z,6.92
2023-03-15T16:48:46.886Z,6.83
2023-03-15T16:51:16.987Z,6.70
2023-03-15T16:53:46.387Z,6.78
2023-03-15T16:56:15.865Z,6.62
2023-03-15T16:58:45.426Z,6.68
2023-03-15T17:01:18.449Z,6.84
2023-03-15T17:03:47.796Z,6.87
2023-03-15T17:06:21.005Z,6.82
2023-03-15T17:08:53.108Z,6.83
2023-03-15T17:11:21.577Z,6.48
2023-03-15T17:13:50.341Z,6.45
2023-03-15T17:16:22.240Z,6.52
2023-03-15T17:18:51.271Z,6.64
2023-03-15T17:21:24.040Z,6.62
2023-03-15T17:23:54.739Z,6.71
2023-03-15T17:26:43.692Z,6.73
2023-03-15T17:29:15.771Z,6.61
2023-03-15T17:31:45.070Z,6.63
2023-03-15T17:34:15.459Z,6.58
2023-03-15T17:36:51.559Z,6.67
2023-03-15T17:39:23.640Z,6.03
2023-03-15T17:41:52.385Z,5.95
2023-03-15T17:44:21.328Z,5.96
2023-03-15T17:46:49.422Z,5.93
2023-03-15T17:49:18.250Z,6.00
2023-03-15T17:51:48.752Z,5.87
2023-03-15T17:54:24.881Z,5.90
2023-03-15T17:56:53.651Z,5.49
2023-03-15T17:59:21.680Z,5.28
2023-03-15T18:01:49.669Z,5.35
2023-03-15T18:04:19.672Z,5.68
2023-03-15T18:06:47.957Z,5.68
2023-03-15T18:09:18.376Z,5.77
2023-03-15T18:11:50.537Z,5.76
2023-03-15T18:14:29.936Z,5.81
2023-03-15T18:16:59.570Z,5.62
2023-03-15T18:19:27.784Z,5.72
2023-03-15T18:21:55.741Z,5.74
2023-03-15T18:24:26.596Z,5.66
2023-03-15T18:26:56.009Z,5.68
2023-03-15T18:29:24.139Z,5.69
2023-03-15T18:31:51.990Z,5.35
2023-03-15T18:34:22.062Z,5.47
2023-03-15T18:36:50.074Z,5.39
2023-03-15T18:39:18.031Z,5.39
2023-03-15T18:41:46.445Z,5.39
2023-03-15T18:44:15.883Z,5.44
2023-03-15T18:46:44.211Z,5.43
2023-03-15T18:49:12.164Z,5.25
2023-03-15T18:51:41.474Z,5.35
2023-03-15T18:54:09.556Z,5.35
2023-03-15T18:56:37.487Z,5.11
2023-03-15T18:59:05.646Z,5.01
2023-03-15T19:01:39.845Z,5.15
2023-03-15T19:04:11.332Z,4.96
2023-03-15T19:06:39.669Z,4.85
2023-03-15T19:09:07.657Z,3.80
2023-03-15T19:11:38.349Z,3.55
2023-03-15T19:14:06.351Z,3.83
2023-03-15T19:16:36.329Z,4.03
2023-03-15T19:19:04.640Z,4.36
2023-03-15T19:21:32.636Z,4.09
2023-03-15T19:24:06.627Z,4.05
2023-03-15T19:26:34.916Z,4.23
2023-03-15T19:29:05.761Z,4.33
2023-03-15T19:32:24.427Z,4.56
2023-03-15T19:35:34.412Z,4.34
2023-03-15T19:38:09.439Z,4.04
2023-03-15T19:44:06.604Z,3.45
2023-03-15T19:46:37.398Z,3.68
2023-03-15T19:49:05.773Z,3.89
2023-03-15T19:51:36.734Z,4.30
2023-03-15T19:54:05.928Z,4.20
2023-03-15T19:56:34.359Z,3.85
2023-03-15T19:59:05.424Z,4.21
2023-03-15T20:01:33.606Z,4.44
2023-03-15T20:04:01.952Z,4.54
2023-03-15T20:06:32.098Z,4.52
2023-03-15T20:09:01.945Z,4.43
2023-03-15T20:11:30.196Z,4.18
2023-03-15T20:13:58.347Z,4.19
2023-03-15T20:16:27.458Z,3.90
2023-03-15T20:18:56.073Z,3.83
2023-03-15T20:21:24.465Z,3.61
2023-03-15T20:23:52.346Z,3.67
2023-03-15T20:26:23.755Z,3.66
2023-03-15T20:28:51.788Z,3.62
2023-03-15T20:31:21.685Z,3.60
2023-03-15T20:33:51.203Z,3.81
2023-03-15T20:36:19.797Z,3.92
2023-03-15T20:38:47.793Z,4.02
2023-03-15T20:41:15.743Z,3.71
2023-03-15T20:43:45.130Z,3.61
2023-03-15T20:46:13.758Z,3.61
2023-03-15T20:48:41.795Z,3.76
2023-03-15T20:51:09.720Z,3.94
2023-03-15T20:53:38.379Z,3.99
2023-03-15T20:56:07.442Z,3.78
2023-03-15T20:58:35.694Z,3.70
2023-03-15T21:01:07.396Z,3.84
2023-03-15T21:03:38.382Z,3.54
2023-03-15T21:06:07.384Z,3.24
2023-03-15T21:08:35.686Z,3.26
2023-03-15T21:11:04.575Z,3.18
2023-03-15T21:13:32.971Z,3.28
2023-03-15T21:16:04.052Z,3.31
2023-03-15T21:18:36.078Z,3.49
2023-03-15T21:21:06.187Z,3.59
2023-03-15T21:23:35.216Z,3.69
2023-03-15T21:26:04.926Z,3.75
2023-03-15T21:28:33.135Z,3.58
2023-03-15T21:31:01.211Z,3.38
2023-03-15T21:33:31.053Z,2.92
2023-03-15T21:36:01.375Z,3.28
2023-03-15T21:38:31.435Z,3.48
2023-03-15T21:41:00.206Z,3.56
2023-03-15T21:43:29.849Z,3.63
2023-03-15T21:46:00.177Z,3.46
2023-03-15T21:48:28.358Z,3.49
2023-03-15T21:50:56.348Z,3.11
2023-03-15T21:53:28.246Z,3.32
2023-03-15T21:55:56.981Z,3.00
2023-03-15T21:58:25.542Z,2.85
2023-03-15T22:00:59.409Z,3.12
2023-03-15T22:03:27.940Z,3.24
2023-03-15T22:05:56.010Z,3.26
2023-03-15T22:08:27.985Z,3.02
2023-03-15T22:10:56.608Z,3.08
2023-03-15T22:13:24.918Z,3.20
2023-03-15T22:15:53.538Z,3.31
2023-03-15T22:18:21.496Z,3.39
2023-03-15T22:20:50.172Z,3.40
2023-03-15T22:23:18.806Z,2.87
2023-03-15T22:25:48.089Z,2.34
2023-03-15T22:28:16.364Z,2.19
2023-03-15T22:30:47.428Z,2.00
2023-03-15T22:33:19.175Z,2.33
2023-03-15T22:35:47.354Z,1.94
2023-03-15T22:38:15.728Z,2.10
2023-03-15T22:40:43.642Z,2.05
2023-03-15T22:43:12.905Z,2.21
2023-03-15T22:45:41.251Z,1.98
2023-03-15T22:48:09.094Z,2.40
2023-03-15T22:50:37.205Z,2.48
2023-03-15T22:53:04.988Z,2.57
2023-03-15T22:55:32.846Z,2.73
2023-03-15T22:58:00.715Z,2.87
2023-03-15T23:00:30.221Z,2.88
2023-03-15T23:02:58.166Z,2.36
2023-03-15T23:05:26.048Z,2.22
2023-03-15T23:07:53.856Z,2.48
2023-03-15T23:10:21.915Z,2.45
2023-03-15T23:12:49.781Z,2.50
2023-03-15T23:15:18.385Z,2.46
2023-03-15T23:17:47.711Z,2.26
2023-03-15T23:20:16.773Z,2.29
2023-03-15T23:22:45.100Z,2.36
2023-03-15T23:25:14.136Z,2.14
2023-03-15T23:27:42.957Z,1.97
2023-03-15T23:30:12.052Z,1.81
2023-03-15T23:32:40.397Z,1.83
2023-03-15T23:35:12.274Z,1.34
2023-03-15T23:37:40.433Z,1.40
2023-03-15T23:40:14.010Z,1.62
2023-03-15T23:42:42.596Z,2.14
2023-03-15T23:45:12.144Z,1.87
2023-03-15T23:47:40.962Z,2.10
2023-03-15T23:50:12.603Z,2.00
2023-03-15T23:52:41.307Z,2.00
2023-03-15T23:55:09.936Z,2.15
2023-03-15T23:57:38.069Z,2.37
